createdAt,value
2019-04-13T00:01:07.945Z,18.47
2019-04-13T00:03:36.786Z,12.47
2019-04-13T00:06:09.659Z,14.70
2019-04-13T00:08:39.256Z,16.40
2019-04-13T00:11:09.871Z,17.10
2019-04-13T00:13:38.427Z,12.03
2019-04-13T00:16:07.142Z,15.17
2019-04-13T00:18:35.718Z,13.10
2019-04-13T00:21:04.370Z,14.17
2019-04-13T00:23:32.960Z,13.97
2019-04-13T00:26:01.886Z,12.80
2019-04-13T00:28:30.554Z,11.40
2019-04-13T00:30:59.107Z,16.10
2019-04-13T00:33:27.681Z,12.77
2019-04-13T00:35:56.269Z,13.43
2019-04-13T00:38:24.831Z,14.20
2019-04-13T00:40:53.333Z,12.10
2019-04-13T00:43:21.986Z,16.17
2019-04-13T00:45:50.620Z,16.80
2019-04-13T00:48:19.193Z,13.60
2019-04-13T00:50:47.790Z,15.63
2019-04-13T00:53:16.436Z,12.67
2019-04-13T00:55:45.022Z,16.77
2019-04-13T00:58:13.595Z,13.17
2019-04-13T01:00:42.549Z,13.80
2019-04-13T01:03:11.134Z,14.70
2019-04-13T01:05:39.685Z,16.13
2019-04-13T01:08:08.285Z,16.63
2019-04-13T01:10:36.907Z,13.00
2019-04-13T01:13:05.735Z,13.90
2019-04-13T01:15:34.309Z,13.67
2019-04-13T01:18:02.932Z,13.40
2019-04-13T01:20:31.524Z,14.47
2019-04-13T01:23:00.102Z,14.67
2019-04-13T01:25:28.762Z,12.63
2019-04-13T01:27:57.418Z,12.97
2019-04-13T01:30:25.993Z,16.27
2019-04-13T01:32:54.618Z,12.95
2019-04-13T01:35:23.281Z,12.73
2019-04-13T01:37:51.830Z,15.27
2019-04-13T01:40:20.427Z,14.23
2019-04-13T01:42:49.303Z,15.53
2019-04-13T01:45:17.873Z,15.10
2019-04-13T01:47:46.459Z,16.80
2019-04-13T01:50:15.101Z,13.17
2019-04-13T01:52:43.689Z,15.27
2019-04-13T01:55:12.313Z,16.10
2019-04-13T01:57:40.951Z,12.77
2019-04-13T02:00:11.518Z,13.60
2019-04-13T02:02:44.418Z,12.60
2019-04-13T02:05:26.920Z,12.50
2019-04-13T02:08:14.183Z,12.90
2019-04-13T02:10:49.868Z,15.50
2019-04-13T02:13:18.435Z,17.40
2019-04-13T02:15:47.042Z,15.00
2019-04-13T02:18:15.612Z,14.57
2019-04-13T02:20:44.282Z,14.97
2019-04-13T02:23:12.894Z,14.33
2019-04-13T02:25:41.456Z,17.87
2019-04-13T02:28:10.492Z,17.37
2019-04-13T02:30:39.166Z,14.00
2019-04-13T02:33:07.850Z,18.67
2019-04-13T02:35:36.969Z,16.60
2019-04-13T02:38:05.689Z,15.67
2019-04-13T02:40:34.641Z,16.47
2019-04-13T02:43:03.375Z,15.60
2019-04-13T02:45:31.929Z,13.03
2019-04-13T02:48:01.225Z,13.33
2019-04-13T02:50:29.794Z,14.23
2019-04-13T02:52:58.376Z,15.23
2019-04-13T02:55:27.032Z,15.27
2019-04-13T02:57:55.651Z,15.30
2019-04-13T03:00:24.326Z,16.60
2019-04-13T03:02:53.732Z,14.53
2019-04-13T03:05:22.453Z,16.27
2019-04-13T03:07:51.102Z,14.47
2019-04-13T03:10:20.031Z,14.07
2019-04-13T03:12:48.812Z,12.33
2019-04-13T03:15:17.550Z,13.97
2019-04-13T03:17:57.289Z,15.70
2019-04-13T03:20:27.941Z,14.50
2019-04-13T03:22:56.530Z,12.27
2019-04-13T03:25:25.159Z,14.90
2019-04-13T03:27:53.763Z,13.27
2019-04-13T03:30:24.035Z,14.30
2019-04-13T03:32:52.612Z,13.50
2019-04-13T03:35:21.200Z,13.23
2019-04-13T03:37:49.851Z,15.73
2019-04-13T03:40:18.435Z,13.03
2019-04-13T03:42:47.050Z,15.43
2019-04-13T03:45:15.688Z,15.17
2019-04-13T03:47:44.299Z,14.53
2019-04-13T03:50:13.195Z,16.60
2019-04-13T03:52:41.784Z,15.20
2019-04-13T03:55:10.517Z,15.95
2019-04-13T03:57:39.099Z,14.93
2019-04-13T04:00:08.028Z,14.50
2019-04-13T04:02:36.614Z,19.13
2019-04-13T04:05:07.020Z,13.67
2019-04-13T04:07:35.643Z,17.40
2019-04-13T04:10:06.319Z,16.70
2019-04-13T04:12:34.975Z,16.57
2019-04-13T04:15:04.997Z,14.63
2019-04-13T04:17:33.575Z,18.03
2019-04-13T04:20:02.504Z,16.17
2019-04-13T04:22:31.228Z,17.80
2019-04-13T04:24:59.835Z,15.10
2019-04-13T04:27:28.787Z,13.87
2019-04-13T04:29:57.370Z,14.43
2019-04-13T04:32:25.951Z,13.30
2019-04-13T04:34:54.605Z,16.23
2019-04-13T04:37:23.213Z,15.87
2019-04-13T04:39:51.777Z,18.03
2019-04-13T04:42:20.369Z,17.37
2019-04-13T04:44:48.950Z,14.97
2019-04-13T04:47:17.515Z,15.00
2019-04-13T04:49:46.117Z,14.53
2019-04-13T04:52:14.782Z,16.93
2019-04-13T04:54:43.359Z,14.80
2019-04-13T04:57:11.945Z,16.23
2019-04-13T04:59:40.526Z,11.83
2019-04-13T05:02:09.107Z,15.27
2019-04-13T05:04:37.708Z,13.43
2019-04-13T05:07:06.364Z,13.43
2019-04-13T05:09:35.029Z,11.27
2019-04-13T05:12:03.620Z,15.83
2019-04-13T05:14:32.192Z,12.30
2019-04-13T05:17:00.780Z,13.50
2019-04-13T05:19:29.357Z,10.87
2019-04-13T05:21:57.920Z,13.90
2019-04-13T05:24:26.518Z,13.00
2019-04-13T05:26:55.078Z,11.37
2019-04-13T05:29:23.679Z,14.67
2019-04-13T05:31:52.727Z,11.90
2019-04-13T05:34:21.627Z,12.77
2019-04-13T05:36:50.532Z,15.30
2019-04-13T05:39:19.104Z,16.80
2019-04-13T05:41:47.736Z,12.10
2019-04-13T05:44:16.361Z,13.47
2019-04-13T05:46:44.919Z,13.53
2019-04-13T05:49:13.503Z,14.53
2019-04-13T05:51:42.105Z,12.50
2019-04-13T05:54:10.841Z,15.37
2019-04-13T05:56:39.447Z,20.83
2019-04-13T05:59:08.011Z,16.93
2019-04-13T06:01:36.584Z,11.97
2019-04-13T06:04:05.806Z,13.60
2019-04-13T06:06:34.844Z,12.03
2019-04-13T06:09:06.072Z,12.90
2019-04-13T06:11:35.834Z,12.73
2019-04-13T06:14:05.134Z,13.60
2019-04-13T06:16:33.714Z,16.53
2019-04-13T06:19:02.284Z,14.53
2019-04-13T06:21:30.855Z,11.03
2019-04-13T06:23:59.532Z,11.43
2019-04-13T06:26:28.531Z,11.00
2019-04-13T06:28:57.198Z,10.77
2019-04-13T06:31:27.427Z,12.07
2019-04-13T06:33:57.693Z,14.10
2019-04-13T06:36:26.571Z,12.23
2019-04-13T06:38:59.453Z,11.90
2019-04-13T06:41:25.360Z,12.93
2019-04-13T06:43:53.946Z,17.50
2019-04-13T06:46:22.812Z,16.13
2019-04-13T06:48:51.723Z,11.60
2019-04-13T06:51:20.385Z,11.20
2019-04-13T06:53:48.944Z,10.77
2019-04-13T06:56:17.551Z,11.10
2019-04-13T06:58:46.108Z,16.03
2019-04-13T07:01:14.820Z,11.70
2019-04-13T07:03:43.416Z,9.30
2019-04-13T07:06:12.045Z,9.07
2019-04-13T07:08:42.286Z,11.03
2019-04-13T07:11:18.502Z,12.17
2019-04-13T07:13:48.751Z,10.37
2019-04-13T07:16:28.454Z,12.00
2019-04-13T07:18:57.024Z,10.57
2019-04-13T07:21:25.655Z,11.17
2019-04-13T07:23:57.830Z,9.37
2019-04-13T07:26:24.447Z,22.13
2019-04-13T07:28:53.054Z,13.67
2019-04-13T07:31:21.624Z,14.03
2019-04-13T07:33:50.242Z,10.60
2019-04-13T07:36:19.170Z,15.57
2019-04-13T07:38:47.821Z,16.80
2019-04-13T07:41:16.473Z,14.57
2019-04-13T07:43:45.983Z,12.13
2019-04-13T07:46:22.903Z,11.67
2019-04-13T07:48:59.192Z,10.47
2019-04-13T07:51:29.426Z,14.73
2019-04-13T07:53:57.984Z,13.60
2019-04-13T07:56:31.044Z,11.27
2019-04-13T07:58:56.788Z,12.03
2019-04-13T08:01:25.670Z,10.73
2019-04-13T08:03:54.258Z,10.63
2019-04-13T08:06:23.137Z,20.20
2019-04-13T08:08:53.371Z,19.00
2019-04-13T08:11:22.012Z,14.73
2019-04-13T08:13:50.701Z,39.93
2019-04-13T08:16:19.291Z,123.60
2019-04-13T08:19:12.157Z,20.10
2019-04-13T08:21:39.927Z,13.00
2019-04-13T08:24:08.527Z,13.20
2019-04-13T08:26:37.443Z,12.23
2019-04-13T08:29:06.128Z,9.63
2019-04-13T08:31:34.762Z,12.40
2019-04-13T08:34:03.406Z,13.17
2019-04-13T08:36:32.264Z,14.57
2019-04-13T08:39:00.887Z,20.97
2019-04-13T08:41:29.465Z,9.83
2019-04-13T08:43:58.119Z,10.97
2019-04-13T08:46:28.260Z,10.53
2019-04-13T08:48:57.624Z,9.90
2019-04-13T08:51:26.224Z,11.63
2019-04-13T08:53:54.780Z,9.83
2019-04-13T08:56:23.392Z,10.00
2019-04-13T08:58:51.953Z,11.30
2019-04-13T09:01:20.559Z,11.67
2019-04-13T09:03:49.162Z,46.23
2019-04-13T09:06:17.729Z,11.03
2019-04-13T09:08:46.700Z,10.77
2019-04-13T09:11:19.724Z,10.27
2019-04-13T09:13:45.491Z,12.10
2019-04-13T09:16:14.959Z,18.23
2019-04-13T09:18:46.221Z,11.43
2019-04-13T09:21:26.896Z,9.60
2019-04-13T09:23:55.692Z,10.77
2019-04-13T09:26:24.336Z,16.17
2019-04-13T09:28:52.932Z,12.30
2019-04-13T09:31:25.133Z,14.80
2019-04-13T09:33:52.122Z,13.13
2019-04-13T09:36:20.722Z,21.77
2019-04-13T09:38:49.302Z,12.63
2019-04-13T09:41:18.352Z,12.97
2019-04-13T09:44:05.045Z,11.33
2019-04-13T09:46:37.372Z,12.60
2019-04-13T09:49:04.560Z,11.27
2019-04-13T09:51:33.147Z,13.67
2019-04-13T09:54:01.731Z,13.47
2019-04-13T09:56:37.135Z,14.03
2019-04-13T09:59:01.093Z,13.27
2019-04-13T10:01:31.164Z,17.70
2019-04-13T10:03:59.963Z,25.70
2019-04-13T10:06:28.546Z,14.37
2019-04-13T10:08:57.151Z,18.00
2019-04-13T10:11:32.882Z,12.70
2019-04-13T10:14:06.019Z,14.67
2019-04-13T10:16:36.224Z,16.20
2019-04-13T10:19:04.878Z,10.37
2019-04-13T10:21:33.455Z,11.73
2019-04-13T10:24:02.034Z,10.07
2019-04-13T10:26:30.735Z,9.67
2019-04-13T10:28:59.356Z,14.37
2019-04-13T10:31:27.928Z,12.23
2019-04-13T10:33:56.553Z,11.60
2019-04-13T10:36:25.117Z,13.30
2019-04-13T10:38:53.700Z,15.27
2019-04-13T10:41:22.362Z,10.93
2019-04-13T10:43:50.916Z,11.77
2019-04-13T10:46:29.964Z,12.33
2019-04-13T10:49:02.613Z,10.33
2019-04-13T10:51:48.163Z,12.93
2019-04-13T10:54:16.751Z,11.83
2019-04-13T10:56:45.325Z,13.60
2019-04-13T10:59:14.255Z,12.03
2019-04-13T11:01:42.884Z,12.53
2019-04-13T11:04:11.417Z,11.63
2019-04-13T11:06:40.098Z,13.77
2019-04-13T11:09:21.216Z,14.30
2019-04-13T11:11:42.005Z,15.63
2019-04-13T11:14:11.009Z,12.27
2019-04-13T11:16:39.632Z,12.90
2019-04-13T11:19:08.430Z,12.90
2019-04-13T11:21:37.576Z,11.33
2019-04-13T11:24:06.200Z,12.50
2019-04-13T11:26:34.852Z,12.90
2019-04-13T11:29:03.572Z,13.10
2019-04-13T11:31:32.199Z,14.43
2019-04-13T11:34:00.811Z,10.70
2019-04-13T11:36:29.436Z,16.90
2019-04-13T11:39:02.227Z,11.13
2019-04-13T11:41:38.588Z,12.00
2019-04-13T11:44:08.788Z,14.57
2019-04-13T11:46:44.122Z,10.47
2019-04-13T11:49:13.858Z,14.30
2019-04-13T11:51:42.686Z,12.67
2019-04-13T11:54:11.339Z,12.20
2019-04-13T11:56:39.928Z,13.33
2019-04-13T11:59:08.523Z,14.23
2019-04-13T12:01:47.976Z,13.63
2019-04-13T12:04:34.760Z,12.83
2019-04-13T12:07:05.319Z,14.93
2019-04-13T12:09:49.969Z,13.53
2019-04-13T12:12:28.480Z,12.67
2019-04-13T12:15:16.761Z,10.40
2019-04-13T12:17:51.876Z,12.63
2019-04-13T12:20:33.636Z,10.90
2019-04-13T12:23:02.303Z,11.23
2019-04-13T12:25:30.867Z,13.10
2019-04-13T12:27:59.794Z,17.93
2019-04-13T12:30:30.004Z,12.60
2019-04-13T12:32:58.581Z,14.10
2019-04-13T12:35:27.179Z,10.63
2019-04-13T12:37:55.732Z,11.93
2019-04-13T12:40:35.037Z,12.13
2019-04-13T12:43:03.615Z,12.07
2019-04-13T12:45:32.941Z,11.53
2019-04-13T12:48:01.520Z,12.00
2019-04-13T12:50:30.091Z,10.90
2019-04-13T12:52:58.660Z,10.90
2019-04-13T12:55:27.285Z,13.10
2019-04-13T12:57:55.842Z,9.70
2019-04-13T13:00:28.839Z,12.67
2019-04-13T13:02:57.598Z,16.37
2019-04-13T13:05:27.807Z,11.27
2019-04-13T13:07:56.418Z,11.10
2019-04-13T13:10:25.467Z,12.43
2019-04-13T13:12:54.643Z,15.00
2019-04-13T13:15:24.063Z,11.00
2019-04-13T13:17:54.602Z,12.87
2019-04-13T13:20:22.908Z,12.23
2019-04-13T13:22:51.648Z,11.87
2019-04-13T13:25:21.940Z,12.03
2019-04-13T13:27:50.738Z,12.73
2019-04-13T13:30:20.636Z,12.77
2019-04-13T13:32:49.436Z,10.63
2019-04-13T13:35:18.094Z,13.97
2019-04-13T13:37:47.036Z,11.50
2019-04-13T13:40:19.789Z,9.20
2019-04-13T13:42:46.002Z,11.90
2019-04-13T13:45:15.034Z,10.63
2019-04-13T13:47:43.949Z,9.70
2019-04-13T13:50:12.766Z,9.70
2019-04-13T13:52:41.600Z,9.83
2019-04-13T13:55:11.829Z,9.57
2019-04-13T13:57:42.553Z,13.23
2019-04-13T14:00:13.344Z,12.07
2019-04-13T14:02:41.982Z,9.50
2019-04-13T14:05:10.850Z,9.87
2019-04-13T14:07:39.806Z,12.27
2019-04-13T14:10:15.324Z,9.70
2019-04-13T14:12:44.312Z,10.77
2019-04-13T14:15:14.176Z,9.87
2019-04-13T14:17:42.845Z,9.60
2019-04-13T14:20:13.612Z,12.53
2019-04-13T14:22:42.326Z,11.47
2019-04-13T14:25:11.219Z,12.60
2019-04-13T14:27:39.902Z,10.90
2019-04-13T14:30:10.699Z,12.27
2019-04-13T14:32:39.343Z,15.00
2019-04-13T14:35:09.999Z,11.07
2019-04-13T14:37:38.572Z,13.97
2019-04-13T14:40:07.508Z,11.53
2019-04-13T14:42:36.100Z,34.43
2019-04-13T14:45:06.493Z,11.37
2019-04-13T14:47:35.909Z,12.60
2019-04-13T14:50:08.354Z,12.60
2019-04-13T14:52:36.965Z,12.43
2019-04-13T14:55:06.466Z,15.00
2019-04-13T14:57:38.751Z,13.20
2019-04-13T15:00:09.471Z,13.10
2019-04-13T15:02:38.103Z,12.80
2019-04-13T15:05:08.142Z,11.60
2019-04-13T15:07:36.696Z,13.37
2019-04-13T15:10:06.540Z,12.50
2019-04-13T15:12:37.020Z,15.90
2019-04-13T15:15:07.254Z,14.40
2019-04-13T15:17:39.789Z,11.60
2019-04-13T15:20:15.161Z,12.95
2019-04-13T15:22:39.447Z,17.57
2019-04-13T15:25:09.000Z,12.63
2019-04-13T15:27:40.632Z,17.63
2019-04-13T15:30:11.570Z,10.20
2019-04-13T15:32:40.669Z,10.57
2019-04-13T15:35:12.573Z,13.30
2019-04-13T15:37:44.963Z,13.13
2019-04-13T15:40:15.126Z,9.37
2019-04-13T15:42:49.174Z,12.63
2019-04-13T15:45:11.799Z,12.20
2019-04-13T15:47:40.369Z,13.97
2019-04-13T15:50:09.658Z,10.37
2019-04-13T15:52:39.091Z,14.53
2019-04-13T15:55:08.654Z,9.87
2019-04-13T15:57:37.566Z,10.57
2019-04-13T16:00:08.884Z,10.77
2019-04-13T16:02:39.431Z,10.03
2019-04-13T16:05:09.337Z,10.53
2019-04-13T16:07:38.691Z,12.10
2019-04-13T16:10:24.791Z,10.33
2019-04-13T16:13:04.774Z,8.77
2019-04-13T16:15:36.070Z,9.70
2019-04-13T16:18:04.935Z,28.53
2019-04-13T16:20:33.719Z,22.50
2019-04-13T16:23:02.618Z,11.57
2019-04-13T16:25:32.246Z,10.77
2019-04-13T16:28:12.246Z,11.50
2019-04-13T16:30:52.386Z,10.30
2019-04-13T16:33:23.947Z,13.67
2019-04-13T16:35:54.591Z,11.33
2019-04-13T16:38:24.257Z,10.23
2019-04-13T16:40:52.955Z,14.30
2019-04-13T16:43:24.229Z,20.30
2019-04-13T16:46:07.314Z,17.43
2019-04-13T16:48:41.673Z,23.00
2019-04-13T16:51:19.334Z,23.90
2019-04-13T16:54:00.912Z,22.50
2019-04-13T16:56:43.748Z,16.60
2019-04-13T16:59:17.938Z,13.97
2019-04-13T17:01:50.927Z,21.53
2019-04-13T17:04:24.167Z,27.93
2019-04-13T17:06:54.634Z,58.20
2019-04-13T17:09:25.005Z,41.23
2019-04-13T17:11:55.087Z,32.03
2019-04-13T17:14:24.780Z,33.97
2019-04-13T17:16:54.801Z,29.83
2019-04-13T17:19:30.989Z,37.57
2019-04-13T17:22:05.381Z,34.53
2019-04-13T17:24:36.642Z,29.53
2019-04-13T17:27:07.320Z,35.17
2019-04-13T17:29:43.823Z,22.27
2019-04-13T17:32:27.016Z,24.80
2019-04-13T17:34:57.306Z,27.57
2019-04-13T17:37:27.639Z,19.80
2019-04-13T17:39:56.992Z,15.03
2019-04-13T17:42:47.320Z,12.03
2019-04-13T17:45:21.192Z,14.20
2019-04-13T17:47:58.031Z,12.43
2019-04-13T17:50:45.274Z,11.00
2019-04-13T17:53:22.180Z,16.63
2019-04-13T17:55:55.854Z,14.67
2019-04-13T17:58:27.535Z,18.57
2019-04-13T18:01:00.377Z,22.57
2019-04-13T18:03:40.764Z,43.17
2019-04-13T18:06:23.684Z,55.83
2019-04-13T18:09:12.232Z,50.50
2019-04-13T18:11:49.126Z,84.20
2019-04-13T18:14:36.274Z,81.37
2019-04-13T18:17:13.590Z,84.60
2019-04-13T18:19:44.201Z,42.37
2019-04-13T18:22:12.868Z,17.90
2019-04-13T18:24:42.676Z,18.10
2019-04-13T18:27:11.370Z,15.50
2019-04-13T18:29:40.627Z,12.97
2019-04-13T18:32:09.312Z,10.77
2019-04-13T18:34:37.897Z,9.30
2019-04-13T18:37:07.916Z,9.67
2019-04-13T18:39:36.639Z,7.80
2019-04-13T18:42:05.701Z,10.07
2019-04-13T18:44:34.440Z,12.40
2019-04-13T18:47:03.637Z,20.63
2019-04-13T18:49:32.385Z,16.20
2019-04-13T18:52:01.139Z,11.17
2019-04-13T18:54:30.202Z,15.77
2019-04-13T18:57:00.398Z,15.40
2019-04-13T18:59:29.501Z,19.20
2019-04-13T19:01:59.530Z,16.80
2019-04-13T19:04:28.215Z,16.50
2019-04-13T19:06:57.029Z,14.53
2019-04-13T19:09:25.637Z,14.20
2019-04-13T19:11:54.269Z,11.77
2019-04-13T19:14:22.851Z,9.90
2019-04-13T19:16:51.409Z,10.90
2019-04-13T19:19:20.014Z,12.70
2019-04-13T19:21:49.002Z,9.30
2019-04-13T19:24:17.594Z,7.80
2019-04-13T19:26:46.354Z,11.93
2019-04-13T19:29:14.937Z,10.77
2019-04-13T19:31:43.534Z,9.43
2019-04-13T19:34:12.091Z,11.27
2019-04-13T19:36:40.660Z,13.13
2019-04-13T19:39:09.327Z,11.93
2019-04-13T19:41:37.889Z,11.20
2019-04-13T19:44:06.784Z,8.90
2019-04-13T19:46:35.496Z,9.60
2019-04-13T19:49:04.307Z,10.80
2019-04-13T19:51:49.912Z,15.60
2019-04-13T19:54:18.781Z,12.87
2019-04-13T19:56:47.705Z,13.00
2019-04-13T19:59:16.321Z,13.03
2019-04-13T20:01:44.900Z,13.03
2019-04-13T20:04:13.511Z,15.27
2019-04-13T20:06:42.570Z,13.23
2019-04-13T20:09:11.130Z,12.83
2019-04-13T20:11:40.139Z,14.53
2019-04-13T20:14:12.542Z,19.60
2019-04-13T20:16:40.236Z,17.77
2019-04-13T20:19:09.114Z,20.17
2019-04-13T20:21:37.703Z,18.60
2019-04-13T20:24:06.375Z,50.70
2019-04-13T20:26:36.192Z,36.40
2019-04-13T20:29:05.708Z,20.40
2019-04-13T20:31:35.419Z,20.68
2019-04-13T20:34:05.537Z,15.77
2019-04-13T20:36:36.737Z,16.67
2019-04-13T20:39:07.405Z,15.67
2019-04-13T20:41:45.884Z,17.27
2019-04-13T20:44:09.730Z,17.00
2019-04-13T20:46:36.612Z,18.80
2019-04-13T20:49:06.376Z,20.63
2019-04-13T20:51:35.257Z,16.70
2019-04-13T20:54:04.024Z,15.83
2019-04-13T20:56:34.007Z,17.57
2019-04-13T20:59:03.895Z,21.93
2019-04-13T21:01:32.701Z,15.90
2019-04-13T21:04:02.256Z,19.30
2019-04-13T21:06:30.904Z,19.30
2019-04-13T21:09:00.806Z,23.27
2019-04-13T21:11:29.566Z,18.57
2019-04-13T21:14:08.599Z,22.07
2019-04-13T21:16:28.457Z,20.93
2019-04-13T21:18:58.106Z,16.53
2019-04-13T21:21:28.013Z,20.27
2019-04-13T21:23:58.104Z,19.97
2019-04-13T21:26:27.086Z,22.83
2019-04-13T21:28:58.155Z,22.60
2019-04-13T21:31:28.159Z,23.23
2019-04-13T21:33:58.205Z,19.57
2019-04-13T21:36:28.111Z,14.50
2019-04-13T21:38:56.755Z,17.87
2019-04-13T21:41:26.091Z,18.83
2019-04-13T21:43:54.694Z,17.87
2019-04-13T21:46:24.266Z,21.37
2019-04-13T21:48:52.857Z,19.97
2019-04-13T21:51:23.143Z,20.07
2019-04-13T21:53:53.342Z,19.70
2019-04-13T21:56:21.951Z,18.20
2019-04-13T21:58:51.812Z,18.00
2019-04-13T22:01:41.613Z,18.10
2019-04-13T22:04:10.934Z,19.83
2019-04-13T22:06:40.809Z,17.97
2019-04-13T22:09:11.197Z,17.60
2019-04-13T22:11:40.837Z,27.97
2019-04-13T22:14:15.654Z,23.10
2019-04-13T22:16:39.748Z,17.70
2019-04-13T22:19:09.325Z,18.77
2019-04-13T22:21:39.260Z,22.43
2019-04-13T22:24:09.164Z,16.90
2019-04-13T22:26:39.206Z,17.13
2019-04-13T22:29:13.557Z,13.43
2019-04-13T22:32:01.331Z,20.40
2019-04-13T22:34:40.456Z,18.73
2019-04-13T22:37:10.407Z,18.43
2019-04-13T22:39:40.022Z,19.23
2019-04-13T22:42:09.904Z,17.13
2019-04-13T22:44:48.897Z,19.73
2019-04-13T22:47:10.411Z,19.30
2019-04-13T22:49:47.580Z,18.00
2019-04-13T22:52:23.848Z,19.70
2019-04-13T22:55:06.050Z,17.73
2019-04-13T22:57:37.659Z,18.33
2019-04-13T23:00:10.575Z,17.50
2019-04-13T23:02:49.778Z,13.97
2019-04-13T23:05:19.706Z,13.00
2019-04-13T23:07:49.848Z,14.87
2019-04-13T23:10:18.547Z,17.07
2019-04-13T23:12:48.542Z,14.40
2019-04-13T23:15:24.380Z,15.37
2019-04-13T23:17:48.400Z,17.85
2019-04-13T23:20:17.122Z,17.00
2019-04-13T23:22:45.723Z,16.20
2019-04-13T23:25:15.760Z,17.50
2019-04-13T23:27:44.484Z,20.53
2019-04-13T23:30:14.009Z,16.30
2019-04-13T23:32:42.599Z,16.93
2019-04-13T23:35:12.551Z,15.33
2019-04-13T23:37:41.285Z,15.57
2019-04-13T23:40:11.387Z,16.90
2019-04-13T23:42:40.161Z,16.93
2019-04-13T23:45:18.171Z,18.27
2019-04-13T23:47:40.469Z,16.33
2019-04-13T23:50:11.040Z,19.17
2019-04-13T23:52:39.715Z,18.47
2019-04-13T23:55:09.487Z,18.97
2019-04-13T23:57:42.823Z,18.00
